sensor_id;sensor_type;location;lat;lon;timestamp;temperature;humidity
20143;DHT22;10509;46.476;7.134;2023-07-31T00:01:15;16.10;99.90
20143;DHT22;10509;46.476;7.134;2023-07-31T00:03:41;15.80;99.90
20143;DHT22;10509;46.476;7.134;2023-07-31T00:06:06;15.90;99.90
20143;DHT22;10509;46.476;7.134;2023-07-31T00:08:32;15.90;99.90
20143;DHT22;10509;46.476;7.134;2023-07-31T00:10:57;15.80;99.90
20143;DHT22;10509;46.476;7.134;2023-07-31T00:15:49;15.80;99.90
20143;DHT22;10509;46.476;7.134;2023-07-31T00:18:21;15.70;99.90
20143;DHT22;10509;46.476;7.134;2023-07-31T00:20:46;15.70;99.90
20143;DHT22;10509;46.476;7.134;2023-07-31T00:23:30;15.60;99.90
20143;DHT22;10509;46.476;7.134;2023-07-31T00:25:56;15.60;99.90
20143;DHT22;10509;46.476;7.134;2023-07-31T00:28:22;15.50;99.90
20143;DHT22;10509;46.476;7.134;2023-07-31T00:33:13;15.50;99.90
20143;DHT22;10509;46.476;7.134;2023-07-31T00:35:39;15.50;99.90
20143;DHT22;10509;46.476;7.134;2023-07-31T00:40:35;15.30;99.90
20143;DHT22;10509;46.476;7.134;2023-07-31T00:43:01;15.20;99.90
20143;DHT22;10509;46.476;7.134;2023-07-31T00:50:20;15.20;99.90
20143;DHT22;10509;46.476;7.134;2023-07-31T00:57:39;15.20;99.90
20143;DHT22;10509;46.476;7.134;2023-07-31T01:00:06;15.20;99.90
20143;DHT22;10509;46.476;7.134;2023-07-31T01:04:59;15.20;99.90
20143;DHT22;10509;46.476;7.134;2023-07-31T01:07:49;15.20;99.90
20143;DHT22;10509;46.476;7.134;2023-07-31T01:10:26;15.20;99.90
20143;DHT22;10509;46.476;7.134;2023-07-31T01:12:56;15.10;99.90
20143;DHT22;10509;46.476;7.134;2023-07-31T01:15:23;15.10;99.90
20143;DHT22;10509;46.476;7.134;2023-07-31T01:17:48;15.10;99.90
20143;DHT22;10509;46.476;7.134;2023-07-31T01:20:21;15.00;99.90
20143;DHT22;10509;46.476;7.134;2023-07-31T01:25:53;14.90;99.90
20143;DHT22;10509;46.476;7.134;2023-07-31T01:28:23;14.80;99.90
20143;DHT22;10509;46.476;7.134;2023-07-31T01:30:50;14.80;99.90
20143;DHT22;10509;46.476;7.134;2023-07-31T01:33:16;14.80;99.90
20143;DHT22;10509;46.476;7.134;2023-07-31T01:35:44;14.70;99.90
20143;DHT22;10509;46.476;7.134;2023-07-31T01:38:10;14.80;99.90
20143;DHT22;10509;46.476;7.134;2023-07-31T01:40:37;14.80;99.90
20143;DHT22;10509;46.476;7.134;2023-07-31T01:43:02;14.70;99.90
20143;DHT22;10509;46.476;7.134;2023-07-31T01:45:28;14.70;99.90
20143;DHT22;10509;46.476;7.134;2023-07-31T01:47:53;14.70;99.90
20143;DHT22;10509;46.476;7.134;2023-07-31T01:50:19;14.70;99.90
20143;DHT22;10509;46.476;7.134;2023-07-31T01:52:45;14.60;99.90
20143;DHT22;10509;46.476;7.134;2023-07-31T01:55:10;14.60;99.90
20143;DHT22;10509;46.476;7.134;2023-07-31T01:57:37;14.60;99.90
20143;DHT22;10509;46.476;7.134;2023-07-31T02:00:03;14.60;99.90
20143;DHT22;10509;46.476;7.134;2023-07-31T02:02:29;14.50;99.90
20143;DHT22;10509;46.476;7.134;2023-07-31T02:04:55;14.50;99.90
20143;DHT22;10509;46.476;7.134;2023-07-31T02:07:20;14.50;99.90
20143;DHT22;10509;46.476;7.134;2023-07-31T02:09:46;14.50;99.90
20143;DHT22;10509;46.476;7.134;2023-07-31T02:12:13;14.50;99.90
20143;DHT22;10509;46.476;7.134;2023-07-31T02:14:40;14.40;99.90
20143;DHT22;10509;46.476;7.134;2023-07-31T02:17:06;14.40;99.90
20143;DHT22;10509;46.476;7.134;2023-07-31T02:19:31;14.40;99.90
20143;DHT22;10509;46.476;7.134;2023-07-31T02:21:57;14.40;99.90
20143;DHT22;10509;46.476;7.134;2023-07-31T02:24:24;14.30;99.90
20143;DHT22;10509;46.476;7.134;2023-07-31T02:26:50;14.30;99.90
20143;DHT22;10509;46.476;7.134;2023-07-31T02:29:15;14.20;99.90
20143;DHT22;10509;46.476;7.134;2023-07-31T02:32:03;14.30;99.90
20143;DHT22;10509;46.476;7.134;2023-07-31T02:34:28;14.20;99.90
20143;DHT22;10509;46.476;7.134;2023-07-31T02:36:54;14.20;99.90
20143;DHT22;10509;46.476;7.134;2023-07-31T02:39:20;14.20;99.90
20143;DHT22;10509;46.476;7.134;2023-07-31T02:41:46;14.20;99.90
20143;DHT22;10509;46.476;7.134;2023-07-31T02:44:11;14.20;99.90
20143;DHT22;10509;46.476;7.134;2023-07-31T02:46:39;14.20;99.90
20143;DHT22;10509;46.476;7.134;2023-07-31T02:49:05;14.20;99.90
20143;DHT22;10509;46.476;7.134;2023-07-31T02:51:31;14.10;99.90
20143;DHT22;10509;46.476;7.134;2023-07-31T02:53:58;14.10;99.90
20143;DHT22;10509;46.476;7.134;2023-07-31T02:56:24;14.10;99.90
20143;DHT22;10509;46.476;7.134;2023-07-31T02:58:49;14.10;99.90
20143;DHT22;10509;46.476;7.134;2023-07-31T03:01:15;14.10;99.90
20143;DHT22;10509;46.476;7.134;2023-07-31T03:03:41;14.10;99.90
20143;DHT22;10509;46.476;7.134;2023-07-31T03:06:07;14.10;99.90
20143;DHT22;10509;46.476;7.134;2023-07-31T03:08:33;14.10;99.90
20143;DHT22;10509;46.476;7.134;2023-07-31T03:10:58;14.00;99.90
20143;DHT22;10509;46.476;7.134;2023-07-31T03:13:24;14.10;99.90
20143;DHT22;10509;46.476;7.134;2023-07-31T03:15:50;14.10;99.90
20143;DHT22;10509;46.476;7.134;2023-07-31T03:18:16;14.10;99.90
20143;DHT22;10509;46.476;7.134;2023-07-31T03:20:44;14.10;99.90
20143;DHT22;10509;46.476;7.134;2023-07-31T03:23:10;14.10;99.90
20143;DHT22;10509;46.476;7.134;2023-07-31T03:25:36;14.00;99.90
20143;DHT22;10509;46.476;7.134;2023-07-31T03:28:01;14.00;99.90
20143;DHT22;10509;46.476;7.134;2023-07-31T03:30:27;14.00;99.90
20143;DHT22;10509;46.476;7.134;2023-07-31T03:32:53;14.00;99.90
20143;DHT22;10509;46.476;7.134;2023-07-31T03:35:18;14.00;99.90
20143;DHT22;10509;46.476;7.134;2023-07-31T03:37:44;14.00;99.90
20143;DHT22;10509;46.476;7.134;2023-07-31T03:40:10;13.90;99.90
20143;DHT22;10509;46.476;7.134;2023-07-31T03:42:36;13.90;99.90
20143;DHT22;10509;46.476;7.134;2023-07-31T03:45:01;13.90;99.90
20143;DHT22;10509;46.476;7.134;2023-07-31T03:47:27;14.00;99.90
20143;DHT22;10509;46.476;7.134;2023-07-31T03:49:52;13.90;99.90
20143;DHT22;10509;46.476;7.134;2023-07-31T03:52:18;13.90;99.90
20143;DHT22;10509;46.476;7.134;2023-07-31T03:54:44;14.00;99.90
20143;DHT22;10509;46.476;7.134;2023-07-31T03:57:12;13.90;99.90
20143;DHT22;10509;46.476;7.134;2023-07-31T03:59:37;14.00;99.90
20143;DHT22;10509;46.476;7.134;2023-07-31T04:02:04;13.90;99.90
20143;DHT22;10509;46.476;7.134;2023-07-31T04:04:30;13.90;99.90
20143;DHT22;10509;46.476;7.134;2023-07-31T04:06:56;13.90;99.90
20143;DHT22;10509;46.476;7.134;2023-07-31T04:09:21;13.90;99.90
20143;DHT22;10509;46.476;7.134;2023-07-31T04:11:47;13.90;99.90
20143;DHT22;10509;46.476;7.134;2023-07-31T04:14:12;13.90;99.90
20143;DHT22;10509;46.476;7.134;2023-07-31T04:16:38;13.80;99.90
20143;DHT22;10509;46.476;7.134;2023-07-31T04:19:04;13.80;99.90
20143;DHT22;10509;46.476;7.134;2023-07-31T04:21:29;13.80;99.90
20143;DHT22;10509;46.476;7.134;2023-07-31T04:23:55;13.80;99.90
20143;DHT22;10509;46.476;7.134;2023-07-31T04:26:22;13.80;99.90
20143;DHT22;10509;46.476;7.134;2023-07-31T04:28:47;13.80;99.90
20143;DHT22;10509;46.476;7.134;2023-07-31T04:31:13;13.80;99.90
20143;DHT22;10509;46.476;7.134;2023-07-31T04:33:39;13.80;99.90
20143;DHT22;10509;46.476;7.134;2023-07-31T04:36:05;13.80;99.90
20143;DHT22;10509;46.476;7.134;2023-07-31T04:38:30;13.80;99.90
20143;DHT22;10509;46.476;7.134;2023-07-31T04:40:56;13.80;99.90
20143;DHT22;10509;46.476;7.134;2023-07-31T04:43:22;13.80;99.90
20143;DHT22;10509;46.476;7.134;2023-07-31T04:45:47;13.80;99.90
20143;DHT22;10509;46.476;7.134;2023-07-31T04:48:13;13.80;99.90
20143;DHT22;10509;46.476;7.134;2023-07-31T04:50:45;13.70;99.90
20143;DHT22;10509;46.476;7.134;2023-07-31T04:53:11;13.80;99.90
20143;DHT22;10509;46.476;7.134;2023-07-31T04:55:37;13.80;99.90
20143;DHT22;10509;46.476;7.134;2023-07-31T04:58:02;13.80;99.90
20143;DHT22;10509;46.476;7.134;2023-07-31T05:00:28;13.90;99.90
20143;DHT22;10509;46.476;7.134;2023-07-31T05:02:54;13.90;99.90
20143;DHT22;10509;46.476;7.134;2023-07-31T05:05:19;13.90;99.90
20143;DHT22;10509;46.476;7.134;2023-07-31T05:07:45;13.90;99.90
20143;DHT22;10509;46.476;7.134;2023-07-31T05:10:10;13.90;99.90
20143;DHT22;10509;46.476;7.134;2023-07-31T05:12:37;13.90;99.90
20143;DHT22;10509;46.476;7.134;2023-07-31T05:15:03;13.90;99.90
20143;DHT22;10509;46.476;7.134;2023-07-31T05:17:29;13.90;99.90
20143;DHT22;10509;46.476;7.134;2023-07-31T05:19:55;13.90;99.90
20143;DHT22;10509;46.476;7.134;2023-07-31T05:22:20;13.90;99.90
20143;DHT22;10509;46.476;7.134;2023-07-31T05:24:46;13.90;99.90
20143;DHT22;10509;46.476;7.134;2023-07-31T05:27:12;14.00;99.90
20143;DHT22;10509;46.476;7.134;2023-07-31T05:29:40;14.00;99.90
20143;DHT22;10509;46.476;7.134;2023-07-31T05:32:06;14.10;99.90
20143;DHT22;10509;46.476;7.134;2023-07-31T05:34:32;14.10;99.90
20143;DHT22;10509;46.476;7.134;2023-07-31T05:36:58;13.90;99.90
20143;DHT22;10509;46.476;7.134;2023-07-31T05:39:23;13.70;99.90
20143;DHT22;10509;46.476;7.134;2023-07-31T05:41:49;13.40;99.90
20143;DHT22;10509;46.476;7.134;2023-07-31T05:44:14;13.30;99.90
20143;DHT22;10509;46.476;7.134;2023-07-31T05:46:40;13.40;99.90
20143;DHT22;10509;46.476;7.134;2023-07-31T05:49:07;13.40;99.90
20143;DHT22;10509;46.476;7.134;2023-07-31T05:51:32;13.40;99.90
20143;DHT22;10509;46.476;7.134;2023-07-31T05:53:58;13.40;99.90
20143;DHT22;10509;46.476;7.134;2023-07-31T05:56:23;13.40;99.90
20143;DHT22;10509;46.476;7.134;2023-07-31T05:58:49;13.40;99.90
20143;DHT22;10509;46.476;7.134;2023-07-31T06:01:16;13.30;99.90
20143;DHT22;10509;46.476;7.134;2023-07-31T06:03:42;13.20;99.90
20143;DHT22;10509;46.476;7.134;2023-07-31T06:06:08;13.20;99.90
20143;DHT22;10509;46.476;7.134;2023-07-31T06:08:33;13.30;99.90
20143;DHT22;10509;46.476;7.134;2023-07-31T06:10:59;13.60;99.90
20143;DHT22;10509;46.476;7.134;2023-07-31T06:13:25;13.70;99.90
20143;DHT22;10509;46.476;7.134;2023-07-31T06:15:50;14.20;99.90
20143;DHT22;10509;46.476;7.134;2023-07-31T06:18:16;15.10;99.90
20143;DHT22;10509;46.476;7.134;2023-07-31T06:20:42;15.60;99.90
20143;DHT22;10509;46.476;7.134;2023-07-31T06:25:39;17.20;99.90
20143;DHT22;10509;46.476;7.134;2023-07-31T06:28:05;17.00;99.90
20143;DHT22;10509;46.476;7.134;2023-07-31T06:30:30;16.70;99.90
20143;DHT22;10509;46.476;7.134;2023-07-31T06:32:56;16.60;99.90
20143;DHT22;10509;46.476;7.134;2023-07-31T06:35:22;16.60;99.90
20143;DHT22;10509;46.476;7.134;2023-07-31T06:37:47;16.60;99.90
20143;DHT22;10509;46.476;7.134;2023-07-31T06:40:13;16.70;99.90
20143;DHT22;10509;46.476;7.134;2023-07-31T06:42:39;16.80;99.90
20143;DHT22;10509;46.476;7.134;2023-07-31T06:45:04;16.90;99.90
20143;DHT22;10509;46.476;7.134;2023-07-31T06:47:30;17.00;99.90
20143;DHT22;10509;46.476;7.134;2023-07-31T06:49:57;17.20;99.90
20143;DHT22;10509;46.476;7.134;2023-07-31T06:52:23;17.30;99.90
20143;DHT22;10509;46.476;7.134;2023-07-31T06:55:01;17.40;99.90
20143;DHT22;10509;46.476;7.134;2023-07-31T06:57:28;17.60;99.90
20143;DHT22;10509;46.476;7.134;2023-07-31T06:59:53;17.70;99.90
20143;DHT22;10509;46.476;7.134;2023-07-31T07:02:19;17.90;99.90
20143;DHT22;10509;46.476;7.134;2023-07-31T07:04:45;18.00;99.90
20143;DHT22;10509;46.476;7.134;2023-07-31T07:07:10;18.20;99.90
20143;DHT22;10509;46.476;7.134;2023-07-31T07:09:36;18.40;99.90
20143;DHT22;10509;46.476;7.134;2023-07-31T07:12:01;18.60;99.90
20143;DHT22;10509;46.476;7.134;2023-07-31T07:14:27;18.80;99.90
20143;DHT22;10509;46.476;7.134;2023-07-31T07:16:52;18.90;99.90
20143;DHT22;10509;46.476;7.134;2023-07-31T07:19:18;19.10;99.90
20143;DHT22;10509;46.476;7.134;2023-07-31T07:21:44;19.20;99.90
20143;DHT22;10509;46.476;7.134;2023-07-31T07:24:09;19.40;99.90
20143;DHT22;10509;46.476;7.134;2023-07-31T07:26:35;19.60;99.90
20143;DHT22;10509;46.476;7.134;2023-07-31T07:29:00;19.70;99.90
20143;DHT22;10509;46.476;7.134;2023-07-31T07:31:28;19.90;99.90
20143;DHT22;10509;46.476;7.134;2023-07-31T07:33:53;20.00;99.90
20143;DHT22;10509;46.476;7.134;2023-07-31T07:36:19;20.20;99.90
20143;DHT22;10509;46.476;7.134;2023-07-31T07:38:45;20.40;99.90
20143;DHT22;10509;46.476;7.134;2023-07-31T07:41:10;20.50;99.90
20143;DHT22;10509;46.476;7.134;2023-07-31T07:43:37;20.60;99.90
20143;DHT22;10509;46.476;7.134;2023-07-31T07:46:03;20.70;99.90
20143;DHT22;10509;46.476;7.134;2023-07-31T07:48:28;20.80;99.90
20143;DHT22;10509;46.476;7.134;2023-07-31T07:50:56;21.00;99.90
20143;DHT22;10509;46.476;7.134;2023-07-31T07:53:22;21.20;99.90
20143;DHT22;10509;46.476;7.134;2023-07-31T07:55:50;21.30;99.90
20143;DHT22;10509;46.476;7.134;2023-07-31T07:58:15;21.50;99.90
20143;DHT22;10509;46.476;7.134;2023-07-31T08:00:41;21.60;99.90
20143;DHT22;10509;46.476;7.134;2023-07-31T08:03:06;21.70;99.90
20143;DHT22;10509;46.476;7.134;2023-07-31T08:05:32;21.90;99.90
20143;DHT22;10509;46.476;7.134;2023-07-31T08:07:59;22.00;99.90
20143;DHT22;10509;46.476;7.134;2023-07-31T08:10:25;22.10;99.90
20143;DHT22;10509;46.476;7.134;2023-07-31T08:12:50;22.20;99.90
20143;DHT22;10509;46.476;7.134;2023-07-31T08:15:16;22.40;99.90
20143;DHT22;10509;46.476;7.134;2023-07-31T08:17:42;22.50;99.50
20143;DHT22;10509;46.476;7.134;2023-07-31T08:20:08;22.60;98.90
20143;DHT22;10509;46.476;7.134;2023-07-31T08:22:33;22.70;98.90
20143;DHT22;10509;46.476;7.134;2023-07-31T08:24:59;22.80;98.70
20143;DHT22;10509;46.476;7.134;2023-07-31T08:27:24;22.90;98.70
20143;DHT22;10509;46.476;7.134;2023-07-31T08:29:52;23.00;98.60
20143;DHT22;10509;46.476;7.134;2023-07-31T08:32:17;23.10;98.40
20143;DHT22;10509;46.476;7.134;2023-07-31T08:34:43;23.20;98.50
20143;DHT22;10509;46.476;7.134;2023-07-31T08:37:09;23.40;98.20
20143;DHT22;10509;46.476;7.134;2023-07-31T08:39:34;23.50;97.80
20143;DHT22;10509;46.476;7.134;2023-07-31T08:42:00;23.50;97.50
20143;DHT22;10509;46.476;7.134;2023-07-31T08:44:26;23.50;97.70
20143;DHT22;10509;46.476;7.134;2023-07-31T08:46:52;23.60;97.70
20143;DHT22;10509;46.476;7.134;2023-07-31T08:54:12;23.90;97.20
20143;DHT22;10509;46.476;7.134;2023-07-31T08:56:39;24.00;97.40
20143;DHT22;10509;46.476;7.134;2023-07-31T09:01:38;24.20;96.70
20143;DHT22;10509;46.476;7.134;2023-07-31T09:11:24;24.50;96.10
20143;DHT22;10509;46.476;7.134;2023-07-31T09:16:16;24.60;95.80
20143;DHT22;10509;46.476;7.134;2023-07-31T09:18:56;24.60;95.60
20143;DHT22;10509;46.476;7.134;2023-07-31T09:21:23;24.60;95.50
20143;DHT22;10509;46.476;7.134;2023-07-31T09:23:49;24.60;95.80
